Time;durP1;ratioP1;P1;durP2;ratioP2;P2;SDS_P1;SDS_P2;PMS_P1;PMS_P2;Temp;Humidity;BMP_temperature;BMP_pressure;BME280_temperature;BME280_humidity;BME280_pressure;Samples;Min_cycle;Max_cycle;Signal;HPM_P1;HPM_P2
2023/09/01 00:00:52;;;;;;;7.87;4.37;;;;;;;21.34;75.46;99978.91;1718453;83;21026;-66
2023/09/01 00:03:27;;;;;;;5.55;4.25;;;;;;;21.35;75.55;99983.36;1679810;83;21043;-68
2023/09/01 00:05:58;;;;;;;5.70;4.37;;;;;;;21.35;75.22;99982.80;1718577;83;20999;-67
2023/09/01 00:08:28;;;;;;;4.60;3.92;;;;;;;21.36;74.82;99991.44;1718798;83;21038;-68
2023/09/01 00:10:57;;;;;;;4.58;3.92;;;;;;;21.37;74.47;99984.75;1718386;83;21467;-67
2023/09/01 00:13:25;;;;;;;5.15;4.15;;;;;;;21.36;74.26;99983.08;1718463;83;21462;-67
2023/09/01 00:15:55;;;;;;;5.10;4.03;;;;;;;21.35;74.12;99987.55;1718429;83;21066;-67
2023/09/01 00:18:24;;;;;;;8.30;4.05;;;;;;;21.33;73.79;99984.20;1718342;82;21067;-66
2023/09/01 00:21:00;;;;;;;7.70;4.08;;;;;;;21.31;73.75;99993.39;1718372;83;21071;-66
2023/09/01 00:23:28;;;;;;;6.53;4.20;;;;;;;21.31;73.42;99995.63;1719101;83;21451;-67
2023/09/01 00:25:59;;;;;;;4.95;4.20;;;;;;;21.31;73.50;99995.63;1718421;83;21544;-67
2023/09/01 00:28:29;;;;;;;6.50;4.42;;;;;;;21.30;73.41;99998.69;1718456;83;21098;-67
2023/09/01 00:31:01;;;;;;;5.70;4.08;;;;;;;21.31;73.48;99993.39;1718432;83;21007;-68
2023/09/01 00:33:30;;;;;;;5.83;4.58;;;;;;;21.31;73.47;99998.41;1718794;83;21019;-67
2023/09/01 00:35:59;;;;;;;6.40;4.25;;;;;;;21.31;73.74;100005.94;1718745;83;21042;-67
2023/09/01 00:38:31;;;;;;;5.75;4.40;;;;;;;21.29;73.81;100018.75;1718522;83;21094;-67
2023/09/01 00:41:00;;;;;;;4.62;4.12;;;;;;;21.27;73.65;100014.58;1718429;83;21003;-68
2023/09/01 00:43:30;;;;;;;5.28;4.50;;;;;;;21.29;73.85;100015.97;1718805;82;21018;-68
2023/09/01 00:45:59;;;;;;;7.00;4.40;;;;;;;21.29;73.75;100020.15;1718638;83;21066;-68
2023/09/01 00:48:28;;;;;;;6.35;4.65;;;;;;;21.28;73.71;100014.85;1718468;83;21062;-66
2023/09/01 00:50:57;;;;;;;6.78;4.30;;;;;;;21.25;73.87;100012.63;1718335;83;21039;-67
2023/09/01 00:53:26;;;;;;;5.75;4.67;;;;;;;21.20;73.91;100012.87;1718390;83;21043;-67
2023/09/01 00:55:57;;;;;;;5.67;4.67;;;;;;;21.16;74.26;100009.52;1718310;83;21082;-68
2023/09/01 00:58:26;;;;;;;5.45;4.65;;;;;;;21.12;74.51;100007.84;1718497;83;21185;-66
2023/09/01 01:00:58;;;;;;;7.67;5.08;;;;;;;21.11;74.89;100003.38;1718561;83;21074;-68
2023/09/01 01:03:27;;;;;;;5.80;4.80;;;;;;;21.09;75.03;100006.16;1718364;83;21102;-68
2023/09/01 01:06:34;;;;;;;7.53;5.28;;;;;;;21.04;75.02;100006.16;1718623;83;21039;-67
2023/09/01 01:09:23;;;;;;;6.40;5.00;;;;;;;21.02;75.16;100002.26;1718251;82;21482;-68
2023/09/01 01:12:27;;;;;;;6.58;5.20;;;;;;;21.00;75.49;100003.09;1718549;83;21055;-68
2023/09/01 01:14:58;;;;;;;8.90;5.17;;;;;;;20.99;75.68;100017.30;1718624;83;21075;-67
2023/09/01 01:17:28;;;;;;;5.80;4.70;;;;;;;20.97;75.77;100016.17;1718534;83;21042;-67
2023/09/01 01:20:27;;;;;;;5.47;4.67;;;;;;;20.97;75.57;100016.73;1718382;83;21492;-67
2023/09/01 01:23:20;;;;;;;7.28;5.15;;;;;;;20.97;75.36;100014.78;1718414;83;21047;-67
2023/09/01 01:25:53;;;;;;;7.03;4.62;;;;;;;20.95;75.39;100014.22;1718562;83;21074;-68
2023/09/01 01:28:22;;;;;;;5.40;4.75;;;;;;;20.96;75.17;100017.29;1718621;83;21110;-68
2023/09/01 01:30:50;;;;;;;6.53;5.12;;;;;;;20.96;74.95;100027.03;1718560;83;21031;-67
2023/09/01 01:33:44;;;;;;;6.42;4.70;;;;;;;20.94;75.03;100025.09;1718492;82;21525;-67
2023/09/01 01:36:38;;;;;;;7.03;4.58;;;;;;;20.94;74.84;100032.05;1718437;83;21035;-69
2023/09/01 01:39:18;;;;;;;4.97;4.45;;;;;;;20.93;74.67;100023.41;1718457;83;21482;-69
2023/09/01 01:41:55;;;;;;;6.10;5.00;;;;;;;20.90;74.62;100021.17;1718648;83;21479;-68
2023/09/01 01:44:34;;;;;;;6.15;4.67;;;;;;;20.87;74.69;100016.16;1701157;83;21066;-69
2023/09/01 01:47:04;;;;;;;5.90;4.62;;;;;;;20.84;74.80;100016.70;1718441;83;21047;-68
2023/09/01 01:49:35;;;;;;;5.45;4.70;;;;;;;20.78;74.95;100014.44;1718609;83;21047;-68
2023/09/01 01:52:04;;;;;;;7.17;4.72;;;;;;;20.77;75.13;100017.48;1718592;83;21030;-68
2023/09/01 01:54:34;;;;;;;7.30;4.58;;;;;;;20.76;75.31;100014.42;1718581;83;21039;-72
2023/09/01 01:57:04;;;;;;;6.47;4.42;;;;;;;20.76;75.36;100010.25;1718444;82;21023;-68
2023/09/01 01:59:33;;;;;;;6.78;4.55;;;;;;;20.77;75.61;100002.17;1718491;82;21031;-69
2023/09/01 02:02:05;;;;;;;4.97;4.45;;;;;;;20.78;75.71;100005.24;1718464;83;21023;-69
2023/09/01 02:04:32;;;;;;;6.90;5.00;;;;;;;20.75;75.83;100003.84;1718634;83;21047;-67
2023/09/01 02:07:05;;;;;;;5.97;4.78;;;;;;;20.74;75.87;100006.91;1718575;82;21039;-68
2023/09/01 02:09:33;;;;;;;5.40;4.28;;;;;;;20.70;75.99;100008.01;1718563;83;21082;-67
2023/09/01 02:12:02;;;;;;;7.65;5.70;;;;;;;20.67;76.00;100011.34;1718703;83;21090;-68
2023/09/01 02:14:36;;;;;;;6.47;4.65;;;;;;;20.64;76.00;100019.41;1718464;83;21465;-67
2023/09/01 02:17:05;;;;;;;5.67;4.90;;;;;;;20.58;76.05;100029.12;1718577;83;21233;-67
2023/09/01 02:19:37;;;;;;;5.12;4.47;;;;;;;20.56;76.23;100028.56;1718450;83;21502;-67
2023/09/01 02:22:07;;;;;;;5.53;4.78;;;;;;;20.53;76.24;100031.89;1718411;83;21058;-69
2023/09/01 02:24:36;;;;;;;6.42;4.95;;;;;;;20.54;76.40;100040.53;1718690;83;21031;-69
2023/09/01 02:27:06;;;;;;;6.60;4.70;;;;;;;20.53;76.40;100045.81;1718633;83;21501;-68
2023/09/01 02:29:35;;;;;;;5.58;4.65;;;;;;;20.54;76.35;100051.66;1718395;82;21175;-67
2023/09/01 02:32:04;;;;;;;9.85;5.08;;;;;;;20.53;76.27;100062.51;1718438;83;21058;-68
2023/09/01 02:34:33;;;;;;;6.55;4.60;;;;;;;20.53;76.35;100044.97;1718520;82;21438;-67
2023/09/01 02:37:02;;;;;;;5.75;4.60;;;;;;;20.53;76.43;100049.98;1718808;83;21039;-67
2023/09/01 02:39:31;;;;;;;11.48;5.00;;;;;;;20.50;76.28;100051.08;1718610;83;21474;-68
2023/09/01 02:42:01;;;;;;;5.87;4.30;;;;;;;20.47;76.59;100056.64;1718665;83;21082;-68
2023/09/01 02:44:31;;;;;;;8.00;5.28;;;;;;;20.47;76.65;100054.41;1718621;82;21023;-68
2023/09/01 02:47:00;;;;;;;6.00;4.85;;;;;;;20.43;76.81;100054.12;1718687;83;21050;-67
2023/09/01 02:49:29;;;;;;;6.10;4.58;;;;;;;20.42;76.87;100051.61;1718376;82;21521;-67
2023/09/01 02:51:58;;;;;;;5.58;4.50;;;;;;;20.40;77.00;100058.83;1718517;83;21031;-68
2023/09/01 02:54:29;;;;;;;5.95;4.95;;;;;;;20.41;76.87;100056.33;1718469;83;21011;-67
2023/09/01 02:56:57;;;;;;;7.00;5.28;;;;;;;20.39;76.92;100053.50;1718305;83;21090;-68
2023/09/01 02:59:26;;;;;;;8.05;5.35;;;;;;;20.36;77.03;100054.05;1718420;83;21458;-67
2023/09/01 03:01:54;;;;;;;6.28;5.17;;;;;;;20.32;77.36;100058.48;1723911;82;21031;-67
2023/09/01 03:04:24;;;;;;;7.75;5.03;;;;;;;20.33;77.45;100055.98;1718351;83;21039;-69
2023/09/01 03:06:52;;;;;;;7.70;5.28;;;;;;;20.34;77.37;100057.66;1718611;82;21045;-67
2023/09/01 03:09:22;;;;;;;7.50;5.37;;;;;;;20.33;77.49;100054.03;1718468;83;21419;-68
2023/09/01 03:11:51;;;;;;;8.53;5.30;;;;;;;20.34;77.62;100057.09;1718568;83;21094;-68
2023/09/01 03:14:21;;;;;;;6.80;5.50;;;;;;;20.32;77.50;100061.26;1718416;82;21102;-67
2023/09/01 03:16:51;;;;;;;9.08;5.37;;;;;;;20.30;77.54;100062.92;1718641;82;21063;-67
2023/09/01 03:19:21;;;;;;;7.25;5.67;;;;;;;20.26;77.73;100065.96;1718683;83;21090;-67
2023/09/01 03:21:50;;;;;;;8.45;5.85;;;;;;;20.25;77.97;100067.91;1718540;83;21078;-68
2023/09/01 03:24:20;;;;;;;7.80;5.90;;;;;;;20.25;78.29;100058.72;1718556;82;21051;-68
2023/09/01 03:26:50;;;;;;;8.05;5.47;;;;;;;20.25;78.37;100069.85;1718475;83;21102;-69
2023/09/01 03:29:19;;;;;;;7.70;6.28;;;;;;;20.20;78.35;100072.05;1718592;82;21079;-68
2023/09/01 03:31:48;;;;;;;7.85;6.25;;;;;;;20.19;78.47;100077.88;1718654;83;21023;-68
2023/09/01 03:34:19;;;;;;;8.98;6.55;;;;;;;20.18;78.48;100072.88;1718392;83;21058;-68
2023/09/01 03:36:48;;;;;;;10.93;6.10;;;;;;;20.13;78.64;100067.25;1718635;82;21106;-68
2023/09/01 03:39:18;;;;;;;7.78;6.67;;;;;;;20.12;78.84;100071.13;1718642;82;21046;-66
2023/09/01 03:41:48;;;;;;;8.25;6.92;;;;;;;20.11;78.95;100071.41;1718624;83;21460;-68
2023/09/01 03:44:19;;;;;;;9.75;6.90;;;;;;;20.10;79.01;100074.73;1718343;82;21035;-69
2023/09/01 03:46:48;;;;;;;9.78;6.60;;;;;;;20.10;79.14;100088.64;1718630;82;20999;-67
2023/09/01 03:49:18;;;;;;;7.78;6.28;;;;;;;20.07;79.14;100082.78;1718625;83;21435;-67
2023/09/01 03:51:48;;;;;;;9.58;6.35;;;;;;;20.02;79.35;100083.59;1718672;83;21128;-66
2023/09/01 03:54:17;;;;;;;9.35;6.70;;;;;;;20.00;79.47;100087.73;1718379;82;21467;-66
2023/09/01 03:56:46;;;;;;;7.92;6.17;;;;;;;19.96;79.61;100091.61;1716914;82;21030;-67
2023/09/01 03:59:16;;;;;;;9.65;6.33;;;;;;;19.94;79.66;100099.38;1709473;84;21050;-68
2023/09/01 04:01:45;;;;;;;8.73;6.30;;;;;;;19.91;79.88;100102.14;1709620;84;21050;-68
2023/09/01 04:04:14;;;;;;;9.60;6.17;;;;;;;19.88;79.76;100098.50;1709716;84;21023;-68
2023/09/01 04:06:43;;;;;;;8.85;6.15;;;;;;;19.81;79.84;100102.61;1709703;84;20994;-68
2023/09/01 04:09:13;;;;;;;10.65;6.85;;;;;;;19.76;80.12;100101.19;1685289;84;21055;-68
2023/09/01 04:11:42;;;;;;;8.53;6.75;;;;;;;19.70;80.40;100098.91;1709792;84;21038;-69
2023/09/01 04:14:12;;;;;;;12.37;7.12;;;;;;;19.68;80.71;100094.72;1709645;84;21066;-68
2023/09/01 04:16:42;;;;;;;11.33;7.60;;;;;;;19.67;80.95;100099.44;1709710;84;20998;-67
2023/09/01 04:19:11;;;;;;;13.05;8.03;;;;;;;19.67;81.05;100100.83;1709679;84;21030;-68
2023/09/01 04:21:41;;;;;;;14.95;9.35;;;;;;;19.70;81.15;100091.96;1709501;84;21054;-66
2023/09/01 04:24:10;;;;;;;11.97;8.55;;;;;;;19.70;81.02;100090.57;1709431;84;21061;-68
2023/09/01 04:26:40;;;;;;;11.28;7.58;;;;;;;19.70;80.94;100097.52;1709450;84;21730;-67
2023/09/01 04:29:09;;;;;;;14.85;8.33;;;;;;;19.68;80.79;100101.67;1709689;84;21026;-67
2023/09/01 04:31:39;;;;;;;12.53;8.23;;;;;;;19.65;80.87;100100.81;1709489;84;20978;-67
2023/09/01 04:34:10;;;;;;;11.22;7.90;;;;;;;19.68;80.70;100105.84;1709405;84;21014;-66
2023/09/01 04:36:39;;;;;;;10.38;8.00;;;;;;;19.65;80.68;100100.26;1709398;84;21082;-67
2023/09/01 04:39:09;;;;;;;13.78;7.58;;;;;;;19.64;80.80;100101.36;1708716;84;21047;-68
2023/09/01 04:41:38;;;;;;;13.90;8.30;;;;;;;19.67;80.82;100110.56;1709526;84;21051;-68
2023/09/01 04:44:07;;;;;;;10.80;7.58;;;;;;;19.71;80.80;100106.15;1709405;84;20986;-68
2023/09/01 04:46:37;;;;;;;12.13;6.92;;;;;;;19.75;80.51;100103.12;1709645;84;21069;-68
2023/09/01 04:49:05;;;;;;;10.43;6.95;;;;;;;19.76;80.38;100100.63;1709389;84;21034;-69
2023/09/01 04:51:35;;;;;;;9.45;7.35;;;;;;;19.79;80.32;100101.48;1709503;84;20991;-66
2023/09/01 04:54:05;;;;;;;9.85;7.58;;;;;;;19.82;80.19;100103.73;1709623;84;21058;-67
2023/09/01 04:56:35;;;;;;;13.30;7.92;;;;;;;19.87;79.99;100103.78;1709966;84;20995;-68
2023/09/01 04:59:04;;;;;;;11.25;9.43;;;;;;;19.90;79.88;100107.97;1684422;83;21090;-66
2023/09/01 05:01:33;;;;;;;12.20;8.13;;;;;;;19.92;79.67;100109.93;1684442;85;21015;-69
2023/09/01 05:04:05;;;;;;;10.32;7.33;;;;;;;19.94;79.53;100117.45;1684528;84;21091;-67
2023/09/01 05:06:36;;;;;;;10.13;7.15;;;;;;;19.98;79.59;100116.38;1684382;84;21047;-68
2023/09/01 05:09:05;;;;;;;13.30;10.13;;;;;;;20.00;79.42;100116.39;1684261;84;21039;-68
2023/09/01 05:11:34;;;;;;;11.75;7.80;;;;;;;20.06;79.42;100129.23;1684221;84;21019;-68
2023/09/01 05:14:04;;;;;;;13.60;7.92;;;;;;;20.08;79.03;100128.41;1684498;84;21048;-70
2023/09/01 05:16:33;;;;;;;9.30;7.15;;;;;;;20.10;79.09;100131.77;1684394;84;21040;-68
2023/09/01 05:19:02;;;;;;;12.43;7.50;;;;;;;20.15;78.98;100136.52;1684340;84;21087;-69
2023/09/01 05:21:32;;;;;;;11.57;7.25;;;;;;;20.19;78.78;100134.91;1684220;84;21020;-70
2023/09/01 05:24:07;;;;;;;9.20;6.25;;;;;;;20.27;78.81;100148.33;1684364;84;21535;-70
2023/09/01 05:26:37;;;;;;;13.28;7.78;;;;;;;20.37;78.87;100147.55;1684424;84;21047;-69
2023/09/01 05:29:06;;;;;;;9.30;6.05;;;;;;;20.46;78.48;100152.93;1684275;84;21655;-68
2023/09/01 05:31:35;;;;;;;10.32;6.90;;;;;;;20.50;78.20;100150.73;1684404;84;21126;-67
2023/09/01 05:34:06;;;;;;;11.83;7.00;;;;;;;20.53;78.17;100154.38;1684346;84;21518;-69
2023/09/01 05:36:37;;;;;;;11.05;6.45;;;;;;;20.61;78.25;100152.18;1684557;84;21094;-69
2023/09/01 05:39:07;;;;;;;10.18;6.80;;;;;;;20.67;77.90;100154.72;1684158;84;21102;-69
2023/09/01 05:41:36;;;;;;;9.45;6.90;;;;;;;20.72;77.64;100158.09;1684676;85;21031;-69
2023/09/01 05:44:06;;;;;;;9.73;7.12;;;;;;;20.74;77.23;100165.62;1684309;84;21083;-68
2023/09/01 05:46:35;;;;;;;7.70;5.75;;;;;;;20.78;77.14;100168.14;1684519;84;21052;-68
2023/09/01 05:49:05;;;;;;;11.18;6.33;;;;;;;20.82;77.08;100163.73;1684278;84;21491;-70
2023/09/01 05:51:34;;;;;;;19.85;7.15;;;;;;;20.84;77.02;100162.91;1684377;85;21051;-68
2023/09/01 05:54:04;;;;;;;9.40;6.70;;;;;;;20.87;76.89;100167.39;1684253;85;21027;-68
2023/09/01 05:56:33;;;;;;;10.75;6.47;;;;;;;20.93;76.75;100161.84;1684401;84;21689;-69
2023/09/01 05:59:03;;;;;;;8.93;6.60;;;;;;;20.98;76.81;100160.47;1713315;82;21074;-70
2023/09/01 06:01:35;;;;;;;11.33;6.45;;;;;;;21.04;76.65;100146.28;1718400;82;21474;-68
2023/09/01 06:04:06;;;;;;;8.43;6.55;;;;;;;21.09;76.50;100153.27;1718655;83;21082;-69
2023/09/01 06:06:35;;;;;;;8.90;6.70;;;;;;;21.10;76.43;100152.16;1718462;83;21035;-69
2023/09/01 06:09:09;;;;;;;10.55;6.35;;;;;;;21.14;76.44;100151.89;1718675;82;21007;-67
2023/09/01 06:11:37;;;;;;;9.73;6.62;;;;;;;21.20;76.41;100150.80;1723728;83;21046;-71
2023/09/01 06:14:06;;;;;;;10.30;8.13;;;;;;;21.26;76.26;100152.23;1699968;83;21525;-68
2023/09/01 06:16:36;;;;;;;10.58;6.78;;;;;;;21.29;76.03;100148.91;1718662;82;21500;-70
2023/09/01 06:19:05;;;;;;;9.00;6.90;;;;;;;21.33;75.65;100155.05;1718590;83;21498;-68
2023/09/01 06:21:35;;;;;;;10.25;7.58;;;;;;;21.36;75.42;100156.45;1718798;83;21038;-69
2023/09/01 06:24:05;;;;;;;11.97;7.15;;;;;;;21.41;75.39;100149.48;1718529;83;21054;-70
2023/09/01 06:26:35;;;;;;;9.28;6.50;;;;;;;21.48;74.80;100157.06;1718676;82;21046;-69
2023/09/01 06:29:04;;;;;;;8.38;6.78;;;;;;;21.52;74.46;100155.40;1718426;83;21102;-71
2023/09/01 06:31:36;;;;;;;8.50;6.47;;;;;;;21.55;73.98;100160.42;1718756;83;21181;-69
2023/09/01 06:34:06;;;;;;;9.45;6.72;;;;;;;21.59;73.83;100155.97;1718346;83;21086;-69
2023/09/01 06:36:37;;;;;;;11.80;6.70;;;;;;;21.62;73.09;100152.63;1718700;82;21070;-68
2023/09/01 06:39:07;;;;;;;10.00;6.83;;;;;;;21.61;72.97;100157.92;1723971;83;21528;-70
2023/09/01 06:41:37;;;;;;;8.18;6.05;;;;;;;21.64;73.13;100150.40;1718341;83;21066;-69
2023/09/01 06:44:07;;;;;;;8.65;6.25;;;;;;;21.71;72.91;100155.14;1718558;83;21548;-68
2023/09/01 06:46:36;;;;;;;10.03;6.05;;;;;;;21.74;72.53;100151.80;1718629;83;21513;-71
2023/09/01 06:49:06;;;;;;;10.80;6.00;;;;;;;21.75;72.45;100154.03;1718582;83;21055;-69
2023/09/01 06:51:35;;;;;;;8.18;6.30;;;;;;;21.75;72.15;100157.66;1718384;82;21464;-68
2023/09/01 06:54:04;;;;;;;7.83;5.85;;;;;;;21.76;72.13;100155.15;1718438;82;21019;-68
2023/09/01 06:56:34;;;;;;;8.35;5.60;;;;;;;21.83;72.16;100157.66;1718643;83;21085;-69
2023/09/01 06:59:03;;;;;;;12.05;7.05;;;;;;;21.88;71.59;100167.98;1718369;82;21090;-70
2023/09/01 07:01:32;;;;;;;9.85;6.35;;;;;;;21.87;71.73;100164.36;1718311;83;21088;-69
2023/09/01 07:04:04;;;;;;;7.67;5.78;;;;;;;21.91;71.75;100163.25;1718536;83;21003;-70
2023/09/01 07:06:34;;;;;;;7.70;6.20;;;;;;;21.97;71.52;100156.00;1718684;83;21914;-69
2023/09/01 07:09:03;;;;;;;9.43;6.50;;;;;;;22.03;71.28;100158.26;1718393;83;21050;-70
2023/09/01 07:11:32;;;;;;;11.15;5.95;;;;;;;22.16;71.34;100152.14;1718653;83;21027;-68
2023/09/01 07:14:01;;;;;;;9.00;6.47;;;;;;;22.40;70.65;100153.23;1718564;83;21078;-70
2023/09/01 07:16:31;;;;;;;11.15;6.30;;;;;;;22.64;69.57;100149.81;1718372;83;21027;-70
2023/09/01 07:19:02;;;;;;;11.45;5.97;;;;;;;22.82;69.14;100148.42;1718299;83;21088;-69
2023/09/01 07:21:31;;;;;;;13.03;8.13;;;;;;;22.91;67.83;100152.30;1718344;82;21039;-67
2023/09/01 07:24:00;;;;;;;9.30;6.12;;;;;;;22.95;67.40;100157.59;1718636;83;21079;-70
2023/09/01 07:26:29;;;;;;;8.35;6.10;;;;;;;22.99;66.64;100154.51;1718496;83;21050;-68
2023/09/01 07:29:00;;;;;;;8.68;6.60;;;;;;;23.01;66.28;100157.30;1718533;82;21552;-69
2023/09/01 07:31:31;;;;;;;13.65;6.65;;;;;;;23.07;66.17;100158.10;1718441;83;21015;-70
2023/09/01 07:34:00;;;;;;;8.23;6.22;;;;;;;23.11;65.55;100163.39;1718419;83;21521;-69
2023/09/01 07:36:30;;;;;;;9.15;6.28;;;;;;;23.14;64.35;100158.63;1718739;83;21062;-69
2023/09/01 07:39:01;;;;;;;10.25;5.70;;;;;;;23.15;64.31;100148.28;1718553;82;21062;-70
2023/09/01 07:41:32;;;;;;;10.13;5.80;;;;;;;23.26;63.79;100148.51;1718585;83;21034;-69
2023/09/01 07:44:01;;;;;;;7.70;5.58;;;;;;;23.43;63.62;100150.39;1718378;83;21031;-70
2023/09/01 07:46:33;;;;;;;7.03;5.78;;;;;;;23.65;62.87;100152.23;1718576;83;21019;-71
2023/09/01 07:49:03;;;;;;;7.37;5.87;;;;;;;23.88;62.58;100154.03;1718364;83;21084;-70
2023/09/01 07:51:35;;;;;;;8.63;6.10;;;;;;;24.14;61.19;100156.91;1718513;83;21086;-69
2023/09/01 07:54:04;;;;;;;8.43;5.72;;;;;;;24.32;60.61;100146.98;1718700;83;21106;-69
2023/09/01 07:56:34;;;;;;;11.18;6.30;;;;;;;24.45;60.02;100159.45;1729185;82;21025;-72
2023/09/01 07:59:04;;;;;;;9.00;7.03;;;;;;;24.51;59.40;100156.30;1722730;82;21102;-73
2023/09/01 08:01:33;;;;;;;8.30;6.35;;;;;;;24.48;59.17;100154.66;1703419;83;21119;-71
2023/09/01 08:04:03;;;;;;;9.10;6.00;;;;;;;24.42;59.29;100147.44;1709767;83;21073;-73
2023/09/01 08:06:34;;;;;;;8.15;6.03;;;;;;;24.42;59.04;100150.24;1717998;83;20987;-75
2023/09/01 08:09:04;;;;;;;10.08;6.92;;;;;;;24.38;59.07;100147.77;1709348;83;21053;-76
2023/09/01 08:11:33;;;;;;;9.08;6.50;;;;;;;24.46;59.15;100140.95;1709358;84;21054;-76
2023/09/01 08:14:02;;;;;;;9.43;6.85;;;;;;;24.61;59.19;100147.79;1709531;84;21454;-79
2023/09/01 08:16:32;;;;;;;8.68;6.67;;;;;;;24.77;59.03;100146.25;1699552;84;21055;-78
2023/09/01 08:19:05;;;;;;;8.30;5.87;;;;;;;24.95;58.10;100146.30;1698445;84;21432;-79
2023/09/01 08:21:37;;;;;;;8.93;6.80;;;;;;;25.05;56.87;100150.14;1660182;85;21535;-74
2023/09/01 08:24:07;;;;;;;7.65;6.00;;;;;;;25.13;56.48;100149.47;1698483;84;21471;-77
2023/09/01 08:26:36;;;;;;;9.75;6.03;;;;;;;25.24;56.19;100151.00;1660299;86;21502;-77
2023/09/01 08:29:04;;;;;;;9.40;6.15;;;;;;;25.35;55.68;100138.51;1637818;86;21069;-78
2023/09/01 08:31:34;;;;;;;10.10;5.70;;;;;;;25.50;55.70;100155.16;1698978;84;21027;-77
2023/09/01 08:34:02;;;;;;;11.65;5.90;;;;;;;25.72;54.95;100153.73;1709206;84;21498;-79
2023/09/01 08:36:32;;;;;;;8.55;6.08;;;;;;;25.92;54.29;100152.01;1709318;84;21458;-80
2023/09/01 08:39:02;;;;;;;7.65;5.75;;;;;;;26.04;53.91;100149.59;1685522;84;21027;-79
2023/09/01 08:41:33;;;;;;;9.68;5.85;;;;;;;26.16;53.24;100151.91;1709706;83;21017;-80
2023/09/01 08:44:06;;;;;;;7.03;5.78;;;;;;;26.21;52.74;100157.44;1709755;84;21464;-82
2023/09/01 08:46:35;;;;;;;10.50;5.75;;;;;;;26.16;51.96;100161.17;1709376;84;21030;-81
2023/09/01 08:49:05;;;;;;;6.67;5.95;;;;;;;26.01;52.36;100162.84;1709550;84;21489;-83
2023/09/01 08:51:36;;;;;;;7.25;5.30;;;;;;;25.86;52.79;100154.06;1710031;84;21147;-83
2023/09/01 08:54:09;;;;;;;7.42;5.62;;;;;;;25.81;53.05;100161.16;1709825;84;21108;-83
2023/09/01 08:56:37;;;;;;;7.80;5.37;;;;;;;25.75;52.71;100159.58;1709618;84;21097;-82
2023/09/01 08:59:06;;;;;;;6.83;5.72;;;;;;;25.69;52.65;100162.77;1709510;83;21101;-73
2023/09/01 09:01:37;;;;;;;8.30;6.00;;;;;;;25.72;52.80;100157.95;1713979;83;21031;-71
2023/09/01 09:04:06;;;;;;;6.92;5.65;;;;;;;25.76;52.36;100154.22;1718595;83;21074;-78
2023/09/01 09:06:38;;;;;;;9.15;5.90;;;;;;;25.76;52.63;100157.03;1718339;83;21036;-74
2023/09/01 09:09:18;;;;;;;6.83;5.20;;;;;;;25.78;52.69;100154.76;1717945;83;21132;-74
2023/09/01 09:11:57;;;;;;;8.03;5.50;;;;;;;25.77;52.66;100157.30;1717903;83;21446;-72
2023/09/01 09:14:27;;;;;;;7.95;5.80;;;;;;;25.81;52.23;100159.76;1717975;83;21554;-74
2023/09/01 09:16:58;;;;;;;6.78;5.55;;;;;;;25.79;51.93;100162.04;1718094;83;21116;-72
2023/09/01 09:19:28;;;;;;;6.83;5.35;;;;;;;25.73;52.16;100157.64;1718048;83;21119;-79
2023/09/01 09:22:08;;;;;;;6.95;6.00;;;;;;;25.73;52.16;100166.06;1718033;83;21055;-76
2023/09/01 09:24:37;;;;;;;7.45;6.22;;;;;;;25.75;52.18;100165.76;1718130;83;21080;-75
2023/09/01 09:27:06;;;;;;;8.70;6.33;;;;;;;25.72;52.24;100157.95;1718043;83;21080;-76
2023/09/01 09:29:40;;;;;;;7.05;5.80;;;;;;;25.69;51.45;100161.36;1717972;83;21088;-77
2023/09/01 09:32:24;;;;;;;5.90;5.05;;;;;;;25.60;51.41;100159.78;1717974;83;21131;-75
2023/09/01 09:35:19;;;;;;;5.97;5.37;;;;;;;25.62;51.24;100166.48;1718037;83;21174;-76
2023/09/01 09:37:43;;;;;;;7.37;5.42;;;;;;;25.63;50.64;100163.95;1717298;83;21116;-78
2023/09/01 09:40:16;;;;;;;8.33;5.20;;;;;;;25.51;50.53;100156.81;1661882;83;21104;-79
2023/09/01 09:42:46;;;;;;;7.22;5.17;;;;;;;25.50;50.58;100160.77;1718134;83;21068;-76
2023/09/01 09:45:29;;;;;;;6.20;4.75;;;;;;;25.54;50.18;100174.45;1718146;83;21067;-75
2023/09/01 09:48:01;;;;;;;5.75;4.70;;;;;;;25.58;49.68;100171.30;1717766;83;21061;-73
2023/09/01 09:50:32;;;;;;;8.40;4.40;;;;;;;25.63;49.38;100183.02;1718062;83;21016;-73
2023/09/01 09:53:04;;;;;;;6.62;4.40;;;;;;;25.62;48.24;100184.73;1699616;83;21073;-74
2023/09/01 09:55:46;;;;;;;7.83;4.67;;;;;;;25.54;47.59;100184.27;1718128;83;21606;-74
2023/09/01 09:58:18;;;;;;;11.00;7.80;;;;;;;25.51;48.25;100184.88;1717975;83;21108;-76
2023/09/01 10:01:01;;;;;;;9.33;5.95;;;;;;;25.58;48.46;100185.91;1717649;83;21048;-74
2023/09/01 10:03:31;;;;;;;8.90;6.12;;;;;;;25.58;48.43;100176.92;1718044;83;21044;-75
2023/09/01 10:06:00;;;;;;;8.73;6.65;;;;;;;25.49;48.85;100183.51;1718168;83;21063;-80
2023/09/01 10:08:31;;;;;;;8.48;5.92;;;;;;;25.43;49.56;100187.52;1718578;83;21179;-79
2023/09/01 10:11:00;;;;;;;9.70;6.60;;;;;;;25.42;49.72;100189.49;1718408;83;20995;-68
2023/09/01 10:13:30;;;;;;;7.05;5.87;;;;;;;25.50;49.28;100188.81;1718197;83;21054;-76
2023/09/01 10:16:00;;;;;;;8.05;6.47;;;;;;;25.54;49.25;100189.88;1718367;82;21075;-73
2023/09/01 10:18:31;;;;;;;8.68;6.55;;;;;;;25.57;49.33;100189.84;1718175;83;21159;-75
2023/09/01 10:20:59;;;;;;;8.98;6.62;;;;;;;25.59;49.30;100191.22;1718275;83;21067;-77
2023/09/01 10:23:30;;;;;;;9.65;6.78;;;;;;;25.60;49.80;100202.70;1718317;83;21034;-77
2023/09/01 10:26:24;;;;;;;10.15;6.92;;;;;;;25.65;50.08;100199.56;1700277;83;21071;-73
2023/09/01 10:29:04;;;;;;;6.90;5.95;;;;;;;25.70;49.83;100193.33;1717743;82;21075;-77
2023/09/01 10:31:34;;;;;;;7.15;6.35;;;;;;;25.77;49.55;100197.16;1718250;83;21058;-75
2023/09/01 10:34:14;;;;;;;7.47;6.33;;;;;;;25.80;48.57;100200.77;1698959;83;21055;-77
2023/09/01 10:36:45;;;;;;;9.18;6.20;;;;;;;25.73;48.65;100204.52;1718396;83;21023;-75
2023/09/01 10:39:26;;;;;;;10.00;6.28;;;;;;;25.59;48.59;100201.60;1718244;83;21053;-76
2023/09/01 10:42:02;;;;;;;10.55;7.17;;;;;;;25.46;48.70;100196.73;1718211;83;21185;-77
2023/09/01 10:44:49;;;;;;;9.55;6.83;;;;;;;25.40;49.06;100197.38;1698609;83;21074;-75
2023/09/01 10:47:42;;;;;;;9.20;6.00;;;;;;;25.40;49.16;100205.79;1718653;83;21003;-76
2023/09/01 10:50:12;;;;;;;6.25;4.92;;;;;;;25.45;48.12;100204.32;1718368;82;21125;-76
2023/09/01 10:52:42;;;;;;;7.50;5.10;;;;;;;25.49;47.63;100203.98;1699990;83;21467;-78
2023/09/01 10:55:11;;;;;;;6.30;4.83;;;;;;;25.53;47.39;100202.24;1698476;83;21495;-79
2023/09/01 10:57:47;;;;;;;6.83;4.65;;;;;;;25.59;47.50;100207.22;1718105;82;21529;-77
2023/09/01 11:00:33;;;;;;;6.08;4.58;;;;;;;25.67;47.15;100205.73;1718869;83;21043;-82
2023/09/01 11:03:31;;;;;;;5.58;4.60;;;;;;;25.72;46.67;100199.48;1718617;83;21047;-82
2023/09/01 11:06:03;;;;;;;;;;;;;;;25.71;46.22;100199.78;1721143;83;21433;-80
2023/09/01 11:08:32;;;;;;;6.78;4.85;;;;;;;25.63;46.17;100206.04;1697022;83;20263;-78
2023/09/01 11:11:09;;;;;;;6.45;4.80;;;;;;;25.52;46.32;100208.16;1677274;83;21084;-79
2023/09/01 11:13:38;;;;;;;6.03;3.70;;;;;;;25.48;46.54;100205.12;1717721;83;21493;-74
2023/09/01 11:16:09;;;;;;;4.50;3.40;;;;;;;25.50;46.16;100200.05;1718384;83;21057;-79
2023/09/01 11:18:38;;;;;;;4.12;3.17;;;;;;;25.51;45.00;100203.69;1718294;83;21056;-82
2023/09/01 11:21:10;;;;;;;4.17;3.40;;;;;;;25.46;44.75;100209.36;1718655;83;21076;-74
2023/09/01 11:23:40;;;;;;;5.03;3.75;;;;;;;25.42;45.21;100211.94;1718839;83;21072;-84
2023/09/01 11:26:12;;;;;;;5.62;4.20;;;;;;;25.35;45.67;100210.03;1718849;83;21095;-82
2023/09/01 11:28:41;;;;;;;6.15;4.40;;;;;;;25.32;46.04;100212.04;1700567;83;21112;-80
2023/09/01 11:31:09;;;;;;;7.35;4.60;;;;;;;25.27;46.58;100209.30;1718731;83;21056;-78
2023/09/01 11:33:38;;;;;;;7.37;4.40;;;;;;;25.26;47.10;100205.66;1719053;83;21033;-80
2023/09/01 11:36:10;;;;;;;5.00;4.00;;;;;;;25.34;47.14;100212.57;1718547;83;21104;-79
2023/09/01 11:38:44;;;;;;;8.10;4.00;;;;;;;25.45;46.89;100211.91;1700286;83;21492;-83
2023/09/01 11:41:16;;;;;;;4.87;3.45;;;;;;;25.50;46.19;100213.23;1718464;83;21473;-82
2023/09/01 11:43:45;;;;;;;5.58;3.58;;;;;;;25.46;45.71;100205.98;1718533;83;21076;-81